createdAt,value
2017-11-03T00:00:15.414Z,13.68
2017-11-03T00:05:51.903Z,13.42
2017-11-03T00:08:25.037Z,13.57
2017-11-03T00:10:59.280Z,13.68
2017-11-03T00:13:33.704Z,13.82
2017-11-03T00:16:07.325Z,13.67
2017-11-03T00:18:40.063Z,13.53
2017-11-03T00:21:12.782Z,13.67
2017-11-03T00:23:45.101Z,13.66
2017-11-03T00:26:17.906Z,13.78
2017-11-03T00:28:49.887Z,13.77
2017-11-03T00:31:22.128Z,14.11
2017-11-03T00:33:54.084Z,14.15
2017-11-03T00:36:27.729Z,14.21
2017-11-03T00:39:05.705Z,14.20
2017-11-03T00:41:40.094Z,13.61
2017-11-03T00:44:13.122Z,13.10
2017-11-03T00:46:45.739Z,13.48
2017-11-03T00:49:17.376Z,13.61
2017-11-03T00:51:50.785Z,13.65
2017-11-03T00:54:24.122Z,14.07
2017-11-03T00:56:59.133Z,13.36
2017-11-03T00:59:30.944Z,13.20
2017-11-03T01:02:06.190Z,13.46
2017-11-03T01:04:40.566Z,13.03
2017-11-03T01:07:14.699Z,13.25
2017-11-03T01:09:46.664Z,13.49
2017-11-03T01:12:18.583Z,13.11
2017-11-03T01:14:51.538Z,13.03
2017-11-03T01:17:23.847Z,13.16
2017-11-03T01:19:54.928Z,12.95
2017-11-03T01:22:26.951Z,12.97
2017-11-03T01:24:59.181Z,12.99
2017-11-03T01:27:32.031Z,13.14
2017-11-03T01:30:04.780Z,13.44
2017-11-03T01:32:37.545Z,13.38
2017-11-03T01:35:09.825Z,13.41
2017-11-03T01:37:43.020Z,13.38
2017-11-03T01:40:16.689Z,13.50
2017-11-03T01:42:48.707Z,13.81
2017-11-03T01:45:20.412Z,13.54
2017-11-03T01:47:52.136Z,13.71
2017-11-03T01:50:24.767Z,13.69
2017-11-03T01:52:58.088Z,13.12
2017-11-03T01:55:30.807Z,13.07
2017-11-03T01:58:04.205Z,13.44
2017-11-03T02:00:36.477Z,13.30
2017-11-03T02:03:13.662Z,13.23
2017-11-03T02:05:45.400Z,13.00
2017-11-03T02:08:17.332Z,12.67
2017-11-03T02:10:49.216Z,12.32
2017-11-03T02:13:20.482Z,12.61
2017-11-03T02:16:01.450Z,12.89
2017-11-03T02:18:35.728Z,12.83
2017-11-03T02:21:10.620Z,12.49
2017-11-03T02:23:46.297Z,12.23
2017-11-03T02:26:19.462Z,12.13
2017-11-03T02:28:53.931Z,12.44
2017-11-03T02:31:26.074Z,12.67
2017-11-03T02:33:58.065Z,12.59
2017-11-03T02:36:30.002Z,12.36
2017-11-03T02:39:04.938Z,12.20
2017-11-03T02:41:36.748Z,12.12
2017-11-03T02:44:11.023Z,12.36
2017-11-03T02:46:43.866Z,12.34
2017-11-03T02:49:18.100Z,12.46
2017-11-03T02:51:49.891Z,12.66
2017-11-03T02:54:21.767Z,12.03
2017-11-03T02:56:53.479Z,11.49
2017-11-03T02:59:25.263Z,11.64
2017-11-03T03:01:57.026Z,11.56
2017-11-03T03:04:29.043Z,11.77
2017-11-03T03:07:05.994Z,12.11
2017-11-03T03:09:40.200Z,12.46
2017-11-03T03:12:13.661Z,12.72
2017-11-03T03:14:48.015Z,12.83
2017-11-03T03:20:11.783Z,12.73
2017-11-03T03:22:46.034Z,12.62
2017-11-03T03:25:20.710Z,12.54
2017-11-03T03:27:55.004Z,12.35
2017-11-03T03:30:29.986Z,12.32
2017-11-03T03:33:04.527Z,12.31
2017-11-03T03:35:36.749Z,12.31
2017-11-03T03:38:09.913Z,11.75
2017-11-03T03:40:58.012Z,11.88
2017-11-03T03:43:29.291Z,11.82
2017-11-03T03:46:01.610Z,12.03
2017-11-03T03:48:37.926Z,12.18
2017-11-03T03:51:15.371Z,12.52
2017-11-03T03:53:49.262Z,12.73
2017-11-03T03:56:22.210Z,12.87
2017-11-03T03:58:54.293Z,12.77
2017-11-03T04:01:26.271Z,12.93
2017-11-03T04:03:58.221Z,13.03
2017-11-03T04:06:30.463Z,13.05
2017-11-03T04:09:04.497Z,13.00
2017-11-03T04:11:36.635Z,12.92
2017-11-03T04:14:09.404Z,12.87
2017-11-03T04:16:40.684Z,12.82
2017-11-03T04:19:12.600Z,12.82
2017-11-03T04:21:45.626Z,12.69
2017-11-03T04:24:17.741Z,12.51
2017-11-03T04:26:53.023Z,12.37
2017-11-03T04:29:25.314Z,12.24
2017-11-03T04:31:57.629Z,12.22
2017-11-03T04:34:30.100Z,12.23
2017-11-03T04:37:08.792Z,12.10
2017-11-03T04:39:44.478Z,12.14
2017-11-03T04:42:23.149Z,11.91
2017-11-03T04:44:58.295Z,12.18
2017-11-03T04:47:32.323Z,12.27
2017-11-03T04:50:04.471Z,12.28
2017-11-03T04:52:36.376Z,12.29
2017-11-03T04:55:08.549Z,12.23
2017-11-03T04:57:40.389Z,12.26
2017-11-03T05:00:14.515Z,12.34
2017-11-03T05:02:48.365Z,12.37
2017-11-03T05:05:21.885Z,12.48
2017-11-03T05:07:53.715Z,12.44
2017-11-03T05:10:24.913Z,12.50
2017-11-03T05:12:56.664Z,12.42
2017-11-03T05:15:28.420Z,12.42
2017-11-03T05:18:00.008Z,12.46
2017-11-03T05:20:30.571Z,12.43
2017-11-03T05:23:01.667Z,12.36
2017-11-03T05:25:33.197Z,12.22
2017-11-03T05:28:04.678Z,12.18
2017-11-03T05:30:35.955Z,12.24
2017-11-03T05:33:07.692Z,12.19
2017-11-03T05:35:43.456Z,12.15
2017-11-03T05:38:15.707Z,11.99
2017-11-03T05:40:48.205Z,11.99
2017-11-03T05:43:20.395Z,11.86
2017-11-03T05:45:52.954Z,11.78
2017-11-03T05:48:25.771Z,11.72
2017-11-03T05:50:58.538Z,11.69
2017-11-03T05:53:31.073Z,11.63
2017-11-03T05:56:03.310Z,11.70
2017-11-03T05:58:35.012Z,11.71
2017-11-03T06:01:17.155Z,11.71
2017-11-03T06:03:50.640Z,11.38
2017-11-03T06:06:22.842Z,11.41
2017-11-03T06:08:55.340Z,11.45
2017-11-03T06:11:27.377Z,11.09
2017-11-03T06:13:59.486Z,11.16
2017-11-03T06:16:32.786Z,11.42
2017-11-03T06:19:08.133Z,11.60
2017-11-03T06:21:40.350Z,11.44
2017-11-03T06:24:14.060Z,11.27
2017-11-03T06:26:45.412Z,11.43
2017-11-03T06:29:17.933Z,11.64
2017-11-03T06:31:50.610Z,11.77
2017-11-03T06:34:22.794Z,11.69
2017-11-03T06:36:53.945Z,11.27
2017-11-03T06:39:25.360Z,11.25
2017-11-03T06:41:57.465Z,11.58
2017-11-03T06:44:30.725Z,11.75
2017-11-03T06:47:04.969Z,11.99
2017-11-03T06:49:36.869Z,12.22
2017-11-03T06:52:29.018Z,11.81
2017-11-03T06:55:03.981Z,11.95
2017-11-03T06:57:36.918Z,12.18
2017-11-03T07:00:22.248Z,12.12
2017-11-03T07:02:54.760Z,11.90
2017-11-03T07:05:29.393Z,11.78
2017-11-03T07:08:05.930Z,11.76
2017-11-03T07:10:37.796Z,12.07
2017-11-03T07:13:21.621Z,12.40
2017-11-03T07:15:54.978Z,12.38
2017-11-03T07:18:31.518Z,12.54
2017-11-03T07:21:06.541Z,12.63
2017-11-03T07:23:39.550Z,12.76
2017-11-03T07:26:17.395Z,12.43
2017-11-03T07:28:49.598Z,12.83
2017-11-03T07:31:21.808Z,13.09
2017-11-03T07:33:55.186Z,13.42
2017-11-03T07:36:36.860Z,13.42
2017-11-03T07:39:20.963Z,13.36
2017-11-03T07:41:53.657Z,13.15
2017-11-03T07:44:24.708Z,13.18
2017-11-03T07:46:56.400Z,13.00
2017-11-03T07:49:30.602Z,12.96
2017-11-03T07:52:06.271Z,12.84
2017-11-03T07:54:42.313Z,12.53
2017-11-03T07:57:17.641Z,12.83
2017-11-03T07:59:51.407Z,12.68
2017-11-03T08:02:23.433Z,12.88
2017-11-03T08:05:03.109Z,13.10
2017-11-03T08:07:35.092Z,12.73
2017-11-03T08:10:15.267Z,12.43
2017-11-03T08:12:47.224Z,11.94
2017-11-03T08:15:22.155Z,11.27
2017-11-03T08:17:56.652Z,11.71
2017-11-03T08:20:27.561Z,12.29
2017-11-03T08:23:00.300Z,12.40
2017-11-03T08:25:33.166Z,12.55
2017-11-03T08:28:07.827Z,13.03
2017-11-03T08:30:44.174Z,13.43
2017-11-03T08:33:15.872Z,13.82
2017-11-03T08:35:52.958Z,13.52
2017-11-03T08:38:26.859Z,13.95
2017-11-03T08:40:59.830Z,13.90
2017-11-03T08:43:31.136Z,14.18
2017-11-03T08:46:09.441Z,14.07
2017-11-03T08:48:42.983Z,13.54
2017-11-03T08:51:22.712Z,13.76
2017-11-03T08:53:58.408Z,13.36
2017-11-03T08:56:29.252Z,13.36
2017-11-03T08:59:08.469Z,13.36
2017-11-03T09:01:40.300Z,12.90
2017-11-03T09:04:15.521Z,13.12
2017-11-03T09:06:48.552Z,13.06
2017-11-03T09:09:20.409Z,13.73
2017-11-03T09:11:51.843Z,14.13
2017-11-03T09:14:23.065Z,14.57
2017-11-03T09:16:55.067Z,14.72
2017-11-03T09:19:27.656Z,14.96
2017-11-03T09:21:59.963Z,15.23
2017-11-03T09:24:32.793Z,15.80
2017-11-03T09:27:17.369Z,15.77
2017-11-03T09:29:49.579Z,15.60
2017-11-03T09:32:31.532Z,15.42
2017-11-03T09:35:12.211Z,15.95
2017-11-03T09:37:46.403Z,16.09
2017-11-03T09:40:18.627Z,15.67
2017-11-03T09:42:52.684Z,14.80
2017-11-03T09:45:25.440Z,14.81
2017-11-03T09:47:58.332Z,14.64
2017-11-03T09:50:31.192Z,14.69
2017-11-03T09:53:08.050Z,14.73
2017-11-03T09:55:43.703Z,14.83
2017-11-03T09:58:15.150Z,15.22
2017-11-03T10:00:46.951Z,15.16
2017-11-03T10:03:20.544Z,14.63
2017-11-03T10:05:53.201Z,14.53
2017-11-03T10:08:24.274Z,14.14
2017-11-03T10:10:55.491Z,13.92
2017-11-03T10:13:27.633Z,14.20
2017-11-03T10:15:58.757Z,14.74
2017-11-03T10:18:31.060Z,14.60
2017-11-03T10:21:26.726Z,14.55
2017-11-03T10:24:01.671Z,14.91
2017-11-03T10:26:34.843Z,14.65
2017-11-03T10:29:13.036Z,14.51
2017-11-03T10:31:45.050Z,14.33
2017-11-03T10:34:19.024Z,14.53
2017-11-03T10:37:07.134Z,14.81
2017-11-03T10:39:39.413Z,14.32
2017-11-03T10:42:16.825Z,14.60
2017-11-03T10:44:47.905Z,14.50
2017-11-03T10:47:25.538Z,14.36
2017-11-03T10:49:57.576Z,14.49
2017-11-03T10:52:30.101Z,14.11
2017-11-03T10:55:03.268Z,13.69
2017-11-03T10:57:34.815Z,13.73
2017-11-03T11:00:22.131Z,13.87
2017-11-03T11:02:54.499Z,14.08
2017-11-03T11:05:26.389Z,14.11
2017-11-03T11:07:57.680Z,14.28
2017-11-03T11:10:31.453Z,14.32
2017-11-03T11:13:09.591Z,14.23
2017-11-03T11:15:40.087Z,13.98
2017-11-03T11:18:12.096Z,14.22
2017-11-03T11:20:42.664Z,14.13
2017-11-03T11:23:18.639Z,13.46
2017-11-03T11:25:49.969Z,14.16
2017-11-03T11:28:21.658Z,13.82
2017-11-03T11:30:52.333Z,14.04
2017-11-03T11:33:26.436Z,13.45
2017-11-03T11:35:57.900Z,14.09
2017-11-03T11:38:30.979Z,14.64
2017-11-03T11:41:12.691Z,14.61
2017-11-03T11:43:48.204Z,14.83
2017-11-03T11:46:23.773Z,14.54
2017-11-03T11:48:54.860Z,14.79
2017-11-03T11:51:28.750Z,14.83
2017-11-03T11:54:05.036Z,14.62
2017-11-03T11:56:38.317Z,15.03
2017-11-03T11:59:10.013Z,15.03
2017-11-03T12:01:41.872Z,14.76
2017-11-03T12:04:15.256Z,14.93
2017-11-03T12:06:46.321Z,15.39
2017-11-03T12:09:17.033Z,15.35
2017-11-03T12:11:50.972Z,14.65
2017-11-03T12:14:28.399Z,13.96
2017-11-03T12:17:20.615Z,13.84
2017-11-03T12:20:09.753Z,14.22
2017-11-03T12:22:45.301Z,14.39
2017-11-03T12:25:20.677Z,14.63
2017-11-03T12:27:53.132Z,14.91
2017-11-03T12:30:25.049Z,15.02
2017-11-03T12:32:56.744Z,15.48
2017-11-03T12:35:30.727Z,15.48
2017-11-03T12:38:12.950Z,15.30
2017-11-03T12:40:47.286Z,14.51
2017-11-03T12:43:21.658Z,14.53
2017-11-03T12:49:28.720Z,14.04
2017-11-03T12:52:01.770Z,14.25
2017-11-03T12:57:20.776Z,14.27
2017-11-03T12:59:58.771Z,14.64
2017-11-03T13:02:34.509Z,15.02
2017-11-03T13:05:08.974Z,15.19
2017-11-03T13:07:43.924Z,14.68
2017-11-03T13:10:22.975Z,15.05
2017-11-03T13:12:56.340Z,14.68
2017-11-03T13:15:31.545Z,14.72
2017-11-03T13:18:21.045Z,14.55
2017-11-03T13:20:52.614Z,14.08
2017-11-03T13:23:23.983Z,14.23
2017-11-03T13:25:58.913Z,14.08
2017-11-03T13:28:30.675Z,14.46
2017-11-03T13:31:05.805Z,14.36
2017-11-03T13:33:43.060Z,14.81
2017-11-03T13:36:16.216Z,14.45
2017-11-03T13:38:49.053Z,15.05
2017-11-03T13:41:21.424Z,14.95
2017-11-03T13:43:54.576Z,15.01
2017-11-03T13:46:28.085Z,14.76
2017-11-03T13:49:03.354Z,14.48
2017-11-03T13:51:39.404Z,14.50
2017-11-03T13:54:14.265Z,14.52
2017-11-03T13:56:46.656Z,14.72
2017-11-03T13:59:18.966Z,14.18
2017-11-03T14:01:52.287Z,14.36
2017-11-03T14:04:23.656Z,14.78
2017-11-03T14:06:55.604Z,15.44
2017-11-03T14:09:26.216Z,14.82
2017-11-03T14:11:59.686Z,14.68
2017-11-03T14:14:33.612Z,14.60
2017-11-03T14:17:11.969Z,15.08
2017-11-03T14:19:42.464Z,14.64
2017-11-03T14:22:13.861Z,15.08
2017-11-03T14:24:46.429Z,14.65
2017-11-03T14:27:18.478Z,14.69
2017-11-03T14:29:52.893Z,14.69
2017-11-03T14:32:27.700Z,14.56
2017-11-03T14:35:17.542Z,14.60
2017-11-03T14:37:59.699Z,14.68
2017-11-03T14:40:39.407Z,14.52
2017-11-03T14:43:15.073Z,14.60
2017-11-03T14:45:49.971Z,14.48
2017-11-03T14:48:26.025Z,14.45
2017-11-03T15:05:34.245Z,14.42
2017-11-03T15:08:04.248Z,14.85
2017-11-03T15:10:33.873Z,14.96
2017-11-03T15:13:11.525Z,15.00
2017-11-03T15:15:40.754Z,14.99
2017-11-03T15:22:25.813Z,15.06
2017-11-03T15:31:37.401Z,15.15
2017-11-03T15:34:21.589Z,15.15
2017-11-03T15:36:55.319Z,15.24
2017-11-03T15:39:31.832Z,15.22
2017-11-03T15:42:07.164Z,15.32
2017-11-03T15:44:40.185Z,15.34
2017-11-03T15:47:21.979Z,15.33
2017-11-03T15:49:55.349Z,15.37
2017-11-03T15:52:31.174Z,15.35
2017-11-03T15:55:21.320Z,15.38
2017-11-03T15:57:55.057Z,15.35
2017-11-03T16:00:30.745Z,15.36
2017-11-03T16:03:08.000Z,15.20
2017-11-03T16:05:42.939Z,14.99
2017-11-03T16:08:19.216Z,14.81
2017-11-03T16:10:56.981Z,14.72
2017-11-03T16:13:31.940Z,14.42
2017-11-03T16:16:37.869Z,14.17
2017-11-03T16:19:20.695Z,13.96
2017-11-03T16:21:55.921Z,14.14
2017-11-03T16:24:26.671Z,13.99
2017-11-03T16:26:57.764Z,14.29
2017-11-03T16:29:31.387Z,14.23
2017-11-03T16:32:12.368Z,14.34
2017-11-03T16:34:46.832Z,13.93
2017-11-03T16:37:26.067Z,13.48
2017-11-03T16:39:59.255Z,13.72
2017-11-03T16:42:34.305Z,13.79
2017-11-03T16:45:16.056Z,13.80
2017-11-03T16:47:47.691Z,13.73
2017-11-03T16:50:25.021Z,13.62
2017-11-03T16:53:08.873Z,13.51
2017-11-03T16:55:45.989Z,13.41
2017-11-03T16:58:19.699Z,13.35
2017-11-03T17:00:53.348Z,13.25
2017-11-03T17:03:29.143Z,13.12
2017-11-03T17:06:01.954Z,12.98
2017-11-03T17:08:35.349Z,12.86
2017-11-03T17:11:19.243Z,12.78
2017-11-03T17:13:51.573Z,12.61
2017-11-03T17:16:25.059Z,12.52
2017-11-03T17:18:57.322Z,12.31
2017-11-03T17:21:31.989Z,12.24
2017-11-03T17:24:17.429Z,12.11
2017-11-03T17:26:53.155Z,12.00
2017-11-03T17:29:26.206Z,11.86
2017-11-03T17:32:05.558Z,11.90
2017-11-03T17:34:39.433Z,11.91
2017-11-03T17:37:24.024Z,11.93
2017-11-03T17:39:57.011Z,11.85
2017-11-03T17:42:30.569Z,11.85
2017-11-03T17:45:11.749Z,11.72
2017-11-03T17:47:50.263Z,11.68
2017-11-03T17:50:21.821Z,11.61
2017-11-03T17:52:54.011Z,11.61
2017-11-03T17:55:25.280Z,11.58
2017-11-03T17:57:59.404Z,11.54
2017-11-03T18:00:34.916Z,11.55
2017-11-03T18:03:18.961Z,11.47
2017-11-03T18:05:50.581Z,11.47
2017-11-03T18:08:21.643Z,11.32
2017-11-03T18:10:55.406Z,11.32
2017-11-03T18:13:27.103Z,11.20
2017-11-03T18:15:57.536Z,11.11
2017-11-03T18:18:30.783Z,10.90
2017-11-03T18:21:12.472Z,10.89
2017-11-03T18:23:46.578Z,10.85
2017-11-03T18:26:46.004Z,10.75
2017-11-03T18:29:19.130Z,10.69
2017-11-03T18:31:50.676Z,10.66
2017-11-03T18:37:22.244Z,10.36
2017-11-03T18:40:14.958Z,10.37
2017-11-03T18:42:45.623Z,10.33
2017-11-03T18:45:21.292Z,10.22
2017-11-03T18:47:55.039Z,10.14
2017-11-03T18:50:26.901Z,10.05
2017-11-03T18:52:57.708Z,9.91
2017-11-03T18:55:33.638Z,9.81
2017-11-03T18:58:08.986Z,9.84
2017-11-03T19:00:41.396Z,9.78
2017-11-03T19:03:29.285Z,9.79
2017-11-03T19:06:05.869Z,9.63
2017-11-03T19:08:38.134Z,9.53
2017-11-03T19:11:22.113Z,9.56
2017-11-03T19:16:54.650Z,9.48
2017-11-03T19:19:29.602Z,9.30
2017-11-03T19:22:07.303Z,9.20
2017-11-03T19:24:42.746Z,9.28
2017-11-03T19:27:19.559Z,9.12
2017-11-03T19:29:53.149Z,9.19
2017-11-03T19:32:25.641Z,9.19
2017-11-03T19:34:58.481Z,9.20
2017-11-03T19:37:30.690Z,9.21
2017-11-03T19:40:14.910Z,9.03
2017-11-03T19:42:47.083Z,9.08
2017-11-03T19:45:20.980Z,9.09
2017-11-03T19:47:56.021Z,9.10
2017-11-03T19:50:27.951Z,9.01
2017-11-03T19:53:00.791Z,8.99
2017-11-03T19:55:32.635Z,8.99
2017-11-03T19:58:17.781Z,8.71
2017-11-03T20:00:51.336Z,8.82
2017-11-03T20:03:22.984Z,8.70
2017-11-03T20:06:13.604Z,8.73
2017-11-03T20:08:46.170Z,8.87
2017-11-03T20:11:24.411Z,8.88
2017-11-03T20:13:59.545Z,8.92
2017-11-03T20:16:34.813Z,8.91
2017-11-03T20:19:22.129Z,9.04
2017-11-03T20:22:00.514Z,9.07
2017-11-03T20:24:34.755Z,9.12
2017-11-03T20:27:15.199Z,9.04
2017-11-03T20:29:48.229Z,9.11
2017-11-03T20:32:20.759Z,9.10
2017-11-03T20:34:52.425Z,9.05
2017-11-03T20:37:25.464Z,9.04
2017-11-03T20:39:57.410Z,9.01
2017-11-03T20:42:30.894Z,8.95
2017-11-03T20:45:05.399Z,9.01
2017-11-03T20:47:41.514Z,8.94
2017-11-03T20:50:15.846Z,8.73
2017-11-03T20:52:49.101Z,8.92
2017-11-03T20:55:33.207Z,8.93
2017-11-03T20:58:07.137Z,8.89
2017-11-03T21:00:38.100Z,8.95
2017-11-03T21:03:26.927Z,9.09
2017-11-03T21:06:04.335Z,9.07
2017-11-03T21:08:37.391Z,9.23
2017-11-03T21:11:16.689Z,9.04
2017-11-03T21:13:49.779Z,9.12
2017-11-03T21:16:24.067Z,8.97
2017-11-03T21:18:56.798Z,9.05
2017-11-03T21:21:31.957Z,9.14
2017-11-03T21:24:10.598Z,8.94
2017-11-03T21:26:42.562Z,9.16
2017-11-03T21:29:24.793Z,9.22
2017-11-03T21:31:57.456Z,9.24
2017-11-03T21:34:30.041Z,9.30
2017-11-03T21:37:04.711Z,9.31
2017-11-03T21:39:37.145Z,9.32
2017-11-03T21:42:14.314Z,9.30
2017-11-03T21:44:48.409Z,9.11
2017-11-03T21:47:20.206Z,9.26
2017-11-03T21:49:54.919Z,9.39
2017-11-03T21:52:28.250Z,9.18
2017-11-03T21:55:00.314Z,9.34
2017-11-03T21:57:32.925Z,9.40
2017-11-03T22:00:11.324Z,9.29
2017-11-03T22:02:44.145Z,9.53
2017-11-03T22:05:20.459Z,9.63
2017-11-03T22:07:52.907Z,9.69
2017-11-03T22:10:27.526Z,9.70
2017-11-03T22:13:04.958Z,9.70
2017-11-03T22:15:36.653Z,9.62
2017-11-03T22:18:14.414Z,9.44
2017-11-03T22:20:46.434Z,9.36
2017-11-03T22:23:30.978Z,9.31
2017-11-03T22:26:10.890Z,9.12
2017-11-03T22:28:46.646Z,9.30
2017-11-03T22:31:19.315Z,9.15
2017-11-03T22:33:52.198Z,9.01
2017-11-03T22:36:24.654Z,9.05
2017-11-03T22:38:57.785Z,9.12
2017-11-03T22:41:31.289Z,9.13
2017-11-03T22:44:07.651Z,8.91
2017-11-03T22:46:40.195Z,9.02
2017-11-03T22:49:20.663Z,9.00
2017-11-03T22:51:53.043Z,8.84
2017-11-03T22:54:26.905Z,8.92
2017-11-03T22:56:58.264Z,8.96
2017-11-03T22:59:31.013Z,8.94
2017-11-03T23:02:06.222Z,8.96
2017-11-03T23:04:37.990Z,8.72
2017-11-03T23:07:24.072Z,8.82
2017-11-03T23:09:54.309Z,8.85
2017-11-03T23:12:25.886Z,8.84
2017-11-03T23:14:58.109Z,8.81
2017-11-03T23:17:32.063Z,8.75
2017-11-03T23:20:06.450Z,8.77
2017-11-03T23:22:37.384Z,8.41
2017-11-03T23:25:21.883Z,8.64
2017-11-03T23:27:53.063Z,8.63
2017-11-03T23:30:24.170Z,8.41
2017-11-03T23:32:56.210Z,8.52
2017-11-03T23:35:31.919Z,8.43
2017-11-03T23:38:05.477Z,8.38
2017-11-03T23:40:37.164Z,8.42
2017-11-03T23:43:15.971Z,8.53
2017-11-03T23:45:48.555Z,8.63
2017-11-03T23:48:23.842Z,8.49
2017-11-03T23:50:57.345Z,8.50
2017-11-03T23:53:29.049Z,8.58
2017-11-03T23:56:02.948Z,8.60
2017-11-03T23:58:36.395Z,8.73
